createdAt,value
2018-12-08T00:00:48.686Z,2.77
2018-12-08T00:06:53.604Z,4.00
2018-12-08T00:12:58.401Z,2.77
2018-12-08T00:19:03.239Z,3.23
2018-12-08T00:25:08.374Z,3.60
2018-12-08T00:31:30.128Z,3.23
2018-12-08T00:37:34.840Z,3.50
2018-12-08T00:43:39.801Z,2.87
2018-12-08T00:49:44.749Z,2.77
2018-12-08T00:55:49.501Z,3.43
2018-12-08T01:01:54.410Z,3.40
2018-12-08T01:07:59.414Z,3.40
2018-12-08T01:14:04.222Z,2.90
2018-12-08T01:20:09.397Z,3.30
2018-12-08T01:26:14.117Z,3.23
2018-12-08T01:32:25.006Z,3.00
2018-12-08T01:38:29.745Z,3.00
2018-12-08T01:44:34.618Z,3.00
2018-12-08T01:50:39.708Z,2.70
2018-12-08T01:56:44.461Z,3.43
2018-12-08T02:02:49.475Z,2.47
2018-12-08T02:08:54.710Z,2.50
2018-12-08T02:14:59.550Z,2.50
2018-12-08T02:21:04.400Z,2.40
2018-12-08T02:27:09.287Z,2.70
2018-12-08T02:33:14.065Z,2.70
2018-12-08T02:39:36.289Z,2.20
2018-12-08T02:45:41.044Z,2.60
2018-12-08T02:51:45.738Z,2.10
2018-12-08T02:57:50.559Z,2.50
2018-12-08T03:03:56.995Z,2.67
2018-12-08T03:10:02.065Z,2.03
2018-12-08T03:16:07.071Z,2.50
2018-12-08T03:22:11.854Z,3.17
2018-12-08T03:28:16.834Z,2.47
2018-12-08T03:34:21.983Z,2.70
2018-12-08T03:40:26.793Z,2.43
2018-12-08T03:46:31.722Z,2.50
2018-12-08T03:52:36.577Z,2.60
2018-12-08T03:58:41.239Z,2.20
2018-12-08T04:04:45.934Z,2.73
2018-12-08T04:10:50.658Z,2.40
2018-12-08T04:16:55.322Z,2.70
2018-12-08T04:22:59.980Z,3.00
2018-12-08T04:29:04.685Z,2.70
2018-12-08T04:35:09.416Z,2.33
2018-12-08T04:41:14.541Z,3.20
2018-12-08T04:47:19.425Z,2.47
2018-12-08T04:53:24.145Z,2.57
2018-12-08T04:59:28.989Z,2.83
2018-12-08T05:05:33.753Z,2.43
2018-12-08T05:11:38.554Z,2.70
2018-12-08T05:17:43.338Z,2.53
2018-12-08T05:23:48.213Z,2.30
2018-12-08T05:29:52.859Z,2.50
2018-12-08T05:35:57.586Z,2.37
2018-12-08T05:42:02.348Z,2.57
2018-12-08T05:48:12.360Z,2.20
2018-12-08T05:54:17.127Z,2.83
2018-12-08T06:00:22.166Z,2.30
2018-12-08T06:06:26.885Z,2.23
2018-12-08T06:12:31.590Z,2.87
2018-12-08T06:18:36.248Z,1.93
2018-12-08T06:24:40.930Z,2.23
2018-12-08T06:30:45.981Z,2.27
2018-12-08T06:36:50.695Z,1.77
2018-12-08T06:42:55.418Z,1.80
2018-12-08T06:49:00.087Z,2.00
2018-12-08T06:55:05.231Z,1.93
2018-12-08T07:01:09.944Z,2.10
2018-12-08T07:07:14.635Z,2.00
2018-12-08T07:13:19.329Z,1.70
2018-12-08T07:19:24.106Z,2.10
2018-12-08T07:25:28.782Z,2.73
2018-12-08T07:31:33.654Z,2.40
2018-12-08T07:37:38.413Z,2.20
2018-12-08T07:43:43.163Z,2.30
2018-12-08T07:49:48.316Z,2.07
2018-12-08T07:55:53.360Z,2.70
2018-12-08T08:01:58.356Z,3.00
2018-12-08T08:08:04.411Z,2.07
2018-12-08T08:14:09.098Z,2.30
2018-12-08T08:20:13.981Z,1.60
2018-12-08T08:26:18.679Z,2.37
2018-12-08T08:32:23.587Z,2.13
2018-12-08T08:38:28.334Z,2.10
2018-12-08T08:44:33.907Z,2.37
2018-12-08T08:50:38.708Z,2.10
2018-12-08T08:56:43.702Z,2.70
2018-12-08T09:02:48.491Z,2.77
2018-12-08T09:08:53.160Z,2.50
2018-12-08T09:14:57.989Z,2.87
2018-12-08T09:21:02.806Z,2.87
2018-12-08T09:27:07.499Z,2.30
2018-12-08T09:33:12.422Z,2.80
2018-12-08T09:39:34.049Z,3.03
2018-12-08T09:45:41.886Z,3.03
2018-12-08T09:51:45.492Z,2.57
2018-12-08T09:57:50.225Z,3.60
2018-12-08T10:03:55.471Z,3.47
2018-12-08T10:10:00.163Z,3.30
2018-12-08T10:16:05.431Z,3.20
2018-12-08T10:22:10.315Z,3.50
2018-12-08T10:28:15.457Z,3.87
2018-12-08T10:34:20.156Z,4.10
2018-12-08T10:40:25.255Z,3.33
2018-12-08T10:46:30.183Z,4.27
2018-12-08T10:52:35.021Z,3.80
2018-12-08T10:58:39.981Z,3.77
2018-12-08T11:04:44.668Z,4.00
2018-12-08T11:10:49.363Z,4.70
2018-12-08T11:16:54.207Z,4.90
2018-12-08T11:22:58.922Z,4.43
2018-12-08T11:29:03.670Z,4.80
2018-12-08T11:35:08.529Z,5.00
2018-12-08T11:41:13.413Z,4.80
2018-12-08T11:47:18.282Z,4.43
2018-12-08T11:53:23.177Z,4.40
2018-12-08T11:59:27.967Z,4.93
2018-12-08T12:05:32.824Z,4.67
2018-12-08T12:11:37.920Z,4.87
2018-12-08T12:17:44.256Z,4.33
2018-12-08T12:23:49.474Z,4.20
2018-12-08T12:29:54.874Z,4.73
2018-12-08T12:36:00.204Z,3.80
2018-12-08T12:42:05.019Z,3.37
2018-12-08T12:48:10.109Z,3.50
2018-12-08T12:54:14.978Z,4.23
2018-12-08T13:00:19.953Z,4.50
2018-12-08T13:06:24.973Z,3.97
2018-12-08T13:12:30.063Z,3.80
2018-12-08T13:18:34.945Z,4.03
2018-12-08T13:24:39.630Z,4.17
2018-12-08T13:30:44.414Z,2.90
2018-12-08T13:36:49.131Z,3.40
2018-12-08T13:42:53.901Z,4.10
2018-12-08T13:48:58.815Z,3.83
2018-12-08T13:55:04.323Z,4.83
2018-12-08T14:01:10.092Z,4.17
2018-12-08T14:07:14.951Z,4.30
2018-12-08T14:13:20.233Z,3.93
2018-12-08T14:19:24.985Z,3.33
2018-12-08T14:25:29.732Z,3.73
2018-12-08T14:31:34.693Z,3.83
2018-12-08T14:37:39.535Z,4.27
2018-12-08T14:43:44.363Z,3.70
2018-12-08T14:49:49.172Z,3.60
2018-12-08T14:55:53.962Z,4.20
2018-12-08T15:01:59.384Z,3.60
2018-12-08T15:08:09.064Z,3.47
2018-12-08T15:14:17.613Z,3.70
2018-12-08T15:20:25.023Z,4.17
2018-12-08T15:26:33.652Z,4.20
2018-12-08T15:39:26.143Z,3.67
2018-12-08T15:45:38.953Z,3.33
2018-12-08T15:51:49.442Z,4.77
2018-12-08T15:58:03.719Z,4.27
2018-12-08T16:10:57.420Z,4.07
2018-12-08T16:17:09.319Z,4.43
2018-12-08T16:29:54.625Z,4.50
2018-12-08T16:36:00.901Z,4.30
2018-12-08T16:42:08.174Z,4.33
2018-12-08T16:48:13.324Z,4.57
2018-12-08T16:54:19.263Z,6.03
2018-12-08T17:00:26.916Z,5.63
2018-12-08T17:06:36.942Z,5.77
2018-12-08T17:12:50.062Z,5.43
2018-12-08T17:18:59.347Z,5.23
2018-12-08T17:25:11.935Z,5.87
2018-12-08T17:31:22.194Z,6.20
2018-12-08T17:37:28.877Z,5.63
2018-12-08T17:43:33.762Z,5.43
2018-12-08T17:49:43.309Z,5.80
2018-12-08T18:02:13.931Z,4.03
2018-12-08T18:08:19.780Z,4.20
2018-12-08T18:14:27.620Z,3.17
2018-12-08T18:20:38.029Z,4.23
2018-12-08T18:26:44.579Z,3.27
2018-12-08T18:32:50.812Z,4.00
2018-12-08T18:39:06.031Z,2.73
2018-12-08T18:45:14.036Z,2.53
2018-12-08T18:51:24.408Z,2.37
2018-12-08T18:57:31.571Z,1.77
2018-12-08T19:03:36.775Z,2.40
2018-12-08T19:09:42.819Z,2.03
2018-12-08T19:15:47.625Z,1.60
2018-12-08T19:21:52.344Z,1.57
2018-12-08T19:27:57.117Z,1.93
2018-12-08T19:34:01.827Z,1.77
2018-12-08T19:40:07.987Z,2.30
2018-12-08T19:46:12.723Z,1.60
2018-12-08T19:52:17.505Z,1.27
2018-12-08T19:58:22.323Z,1.43
2018-12-08T20:04:27.096Z,1.67
2018-12-08T20:10:31.883Z,1.93
2018-12-08T20:16:36.648Z,1.33
2018-12-08T20:22:41.417Z,1.33
2018-12-08T20:28:46.206Z,1.70
2018-12-08T20:34:52.591Z,1.37
2018-12-08T20:40:57.513Z,1.20
2018-12-08T20:47:02.305Z,1.80
2018-12-08T20:53:07.100Z,1.00
2018-12-08T20:59:11.925Z,1.10
2018-12-08T21:05:16.725Z,1.23
2018-12-08T21:11:21.501Z,1.30
2018-12-08T21:17:35.464Z,2.97
2018-12-08T21:23:40.691Z,1.27
2018-12-08T21:29:45.431Z,1.17
2018-12-08T21:35:50.147Z,1.00
2018-12-08T21:41:54.962Z,1.00
2018-12-08T21:47:59.742Z,1.80
2018-12-08T21:54:04.741Z,2.50
2018-12-08T22:00:10.277Z,2.87
2018-12-08T22:06:15.129Z,2.47
2018-12-08T22:12:20.011Z,2.57
2018-12-08T22:18:24.789Z,2.93
2018-12-08T22:24:29.562Z,2.50
2018-12-08T22:30:38.069Z,3.27
2018-12-08T22:36:42.998Z,3.10
2018-12-08T22:42:47.769Z,3.37
2018-12-08T22:48:52.479Z,3.00
2018-12-08T22:54:57.253Z,3.20
2018-12-08T23:01:02.051Z,3.53
2018-12-08T23:07:07.347Z,3.20
2018-12-08T23:13:12.253Z,4.20
2018-12-08T23:19:17.005Z,4.70
2018-12-08T23:25:21.758Z,4.10
2018-12-08T23:31:26.535Z,5.00
2018-12-08T23:37:31.345Z,2.43
2018-12-08T23:43:36.167Z,3.83
2018-12-08T23:49:40.867Z,5.13
2018-12-08T23:55:45.630Z,5.20
